sensor_id;sensor_type;location;lat;lon;timestamp;P1;durP1;ratioP1;P2;durP2;ratioP2
2646;SDS011;1333;50.958;6.770;2023-03-02T00:04:34;11.17;;;5.10;;
2646;SDS011;1333;50.958;6.770;2023-03-02T00:07:06;10.97;;;5.40;;
2646;SDS011;1333;50.958;6.770;2023-03-02T00:09:35;8.40;;;4.90;;
2646;SDS011;1333;50.958;6.770;2023-03-02T00:12:01;7.00;;;4.60;;
2646;SDS011;1333;50.958;6.770;2023-03-02T00:14:28;8.30;;;5.47;;
2646;SDS011;1333;50.958;6.770;2023-03-02T00:16:54;7.00;;;5.13;;
2646;SDS011;1333;50.958;6.770;2023-03-02T00:19:19;6.73;;;4.83;;
2646;SDS011;1333;50.958;6.770;2023-03-02T00:21:45;9.63;;;6.10;;
2646;SDS011;1333;50.958;6.770;2023-03-02T00:24:11;7.00;;;4.83;;
2646;SDS011;1333;50.958;6.770;2023-03-02T00:26:38;9.57;;;5.60;;
2646;SDS011;1333;50.958;6.770;2023-03-02T00:29:04;8.70;;;5.93;;
2646;SDS011;1333;50.958;6.770;2023-03-02T00:31:29;6.90;;;5.10;;
2646;SDS011;1333;50.958;6.770;2023-03-02T00:33:55;10.20;;;5.33;;
2646;SDS011;1333;50.958;6.770;2023-03-02T00:36:21;8.70;;;5.43;;
2646;SDS011;1333;50.958;6.770;2023-03-02T00:38:47;12.03;;;4.83;;
2646;SDS011;1333;50.958;6.770;2023-03-02T00:41:14;7.73;;;4.53;;
2646;SDS011;1333;50.958;6.770;2023-03-02T00:43:40;12.70;;;5.53;;
2646;SDS011;1333;50.958;6.770;2023-03-02T00:46:13;10.97;;;5.30;;
2646;SDS011;1333;50.958;6.770;2023-03-02T00:48:41;7.63;;;4.73;;
2646;SDS011;1333;50.958;6.770;2023-03-02T00:51:07;6.90;;;4.00;;
2646;SDS011;1333;50.958;6.770;2023-03-02T00:53:33;12.83;;;6.47;;
2646;SDS011;1333;50.958;6.770;2023-03-02T00:55:59;13.20;;;5.80;;
2646;SDS011;1333;50.958;6.770;2023-03-02T00:58:26;8.03;;;4.80;;
2646;SDS011;1333;50.958;6.770;2023-03-02T01:00:52;8.80;;;4.13;;
2646;SDS011;1333;50.958;6.770;2023-03-02T01:03:18;8.00;;;5.00;;
2646;SDS011;1333;50.958;6.770;2023-03-02T01:05:44;9.93;;;5.87;;
2646;SDS011;1333;50.958;6.770;2023-03-02T01:08:10;7.90;;;5.17;;
2646;SDS011;1333;50.958;6.770;2023-03-02T01:10:36;7.90;;;4.60;;
2646;SDS011;1333;50.958;6.770;2023-03-02T01:13:03;8.23;;;5.50;;
2646;SDS011;1333;50.958;6.770;2023-03-02T01:15:30;6.57;;;4.07;;
2646;SDS011;1333;50.958;6.770;2023-03-02T01:17:56;11.13;;;6.00;;
2646;SDS011;1333;50.958;6.770;2023-03-02T01:20:23;6.87;;;4.03;;
2646;SDS011;1333;50.958;6.770;2023-03-02T01:22:48;5.50;;;4.20;;
2646;SDS011;1333;50.958;6.770;2023-03-02T01:25:14;5.53;;;4.20;;
2646;SDS011;1333;50.958;6.770;2023-03-02T01:27:40;3.50;;;3.20;;
2646;SDS011;1333;50.958;6.770;2023-03-02T01:30:06;13.00;;;5.50;;
2646;SDS011;1333;50.958;6.770;2023-03-02T01:32:32;7.33;;;4.23;;
2646;SDS011;1333;50.958;6.770;2023-03-02T01:34:57;10.93;;;4.83;;
2646;SDS011;1333;50.958;6.770;2023-03-02T01:37:23;13.23;;;4.40;;
2646;SDS011;1333;50.958;6.770;2023-03-02T01:39:49;8.87;;;4.40;;
2646;SDS011;1333;50.958;6.770;2023-03-02T01:42:14;11.37;;;5.37;;
2646;SDS011;1333;50.958;6.770;2023-03-02T01:44:42;7.03;;;4.50;;
2646;SDS011;1333;50.958;6.770;2023-03-02T01:47:22;7.73;;;4.83;;
2646;SDS011;1333;50.958;6.770;2023-03-02T01:49:50;8.00;;;4.87;;
2646;SDS011;1333;50.958;6.770;2023-03-02T01:52:27;8.63;;;4.50;;
2646;SDS011;1333;50.958;6.770;2023-03-02T01:54:55;7.70;;;4.40;;
2646;SDS011;1333;50.958;6.770;2023-03-02T01:57:25;6.73;;;5.03;;
2646;SDS011;1333;50.958;6.770;2023-03-02T02:00:00;4.80;;;3.57;;
2646;SDS011;1333;50.958;6.770;2023-03-02T02:02:33;9.80;;;5.57;;
2646;SDS011;1333;50.958;6.770;2023-03-02T02:04:59;9.10;;;5.30;;
2646;SDS011;1333;50.958;6.770;2023-03-02T02:07:25;6.63;;;4.40;;
2646;SDS011;1333;50.958;6.770;2023-03-02T02:09:51;6.80;;;5.53;;
2646;SDS011;1333;50.958;6.770;2023-03-02T02:12:20;5.43;;;3.90;;
2646;SDS011;1333;50.958;6.770;2023-03-02T02:14:47;8.30;;;4.37;;
2646;SDS011;1333;50.958;6.770;2023-03-02T02:17:14;8.30;;;4.40;;
2646;SDS011;1333;50.958;6.770;2023-03-02T02:20:01;7.03;;;4.63;;
2646;SDS011;1333;50.958;6.770;2023-03-02T02:22:39;6.90;;;4.10;;
2646;SDS011;1333;50.958;6.770;2023-03-02T02:25:18;7.97;;;4.33;;
2646;SDS011;1333;50.958;6.770;2023-03-02T02:28:02;9.23;;;4.23;;
2646;SDS011;1333;50.958;6.770;2023-03-02T02:30:32;6.07;;;4.60;;
2646;SDS011;1333;50.958;6.770;2023-03-02T02:32:59;8.80;;;6.17;;
2646;SDS011;1333;50.958;6.770;2023-03-02T02:35:25;8.40;;;5.50;;
2646;SDS011;1333;50.958;6.770;2023-03-02T02:37:58;9.53;;;5.03;;
2646;SDS011;1333;50.958;6.770;2023-03-02T02:43:02;5.77;;;4.33;;
2646;SDS011;1333;50.958;6.770;2023-03-02T02:45:29;16.53;;;4.00;;
2646;SDS011;1333;50.958;6.770;2023-03-02T02:47:55;7.70;;;4.53;;
2646;SDS011;1333;50.958;6.770;2023-03-02T02:50:22;8.17;;;5.00;;
2646;SDS011;1333;50.958;6.770;2023-03-02T02:53:02;8.00;;;4.90;;
2646;SDS011;1333;50.958;6.770;2023-03-02T02:55:31;8.80;;;3.87;;
2646;SDS011;1333;50.958;6.770;2023-03-02T02:57:58;5.40;;;3.80;;
2646;SDS011;1333;50.958;6.770;2023-03-02T03:00:26;7.00;;;5.00;;
2646;SDS011;1333;50.958;6.770;2023-03-02T03:02:54;10.70;;;5.43;;
2646;SDS011;1333;50.958;6.770;2023-03-02T03:05:25;4.80;;;4.10;;
2646;SDS011;1333;50.958;6.770;2023-03-02T03:07:51;13.43;;;5.03;;
2646;SDS011;1333;50.958;6.770;2023-03-02T03:10:25;5.77;;;4.17;;
2646;SDS011;1333;50.958;6.770;2023-03-02T03:12:58;9.83;;;5.10;;
2646;SDS011;1333;50.958;6.770;2023-03-02T03:15:24;6.60;;;4.70;;
2646;SDS011;1333;50.958;6.770;2023-03-02T03:17:56;8.03;;;4.10;;
2646;SDS011;1333;50.958;6.770;2023-03-02T03:20:23;11.47;;;6.27;;
2646;SDS011;1333;50.958;6.770;2023-03-02T03:22:49;7.70;;;4.07;;
2646;SDS011;1333;50.958;6.770;2023-03-02T03:25:17;8.40;;;4.80;;
2646;SDS011;1333;50.958;6.770;2023-03-02T03:27:43;7.17;;;4.30;;
2646;SDS011;1333;50.958;6.770;2023-03-02T03:30:10;7.17;;;4.23;;
2646;SDS011;1333;50.958;6.770;2023-03-02T03:32:36;9.00;;;4.93;;
2646;SDS011;1333;50.958;6.770;2023-03-02T03:35:02;7.13;;;4.67;;
2646;SDS011;1333;50.958;6.770;2023-03-02T03:37:32;7.30;;;5.10;;
2646;SDS011;1333;50.958;6.770;2023-03-02T03:39:59;10.60;;;5.07;;
2646;SDS011;1333;50.958;6.770;2023-03-02T03:42:24;7.60;;;4.30;;
2646;SDS011;1333;50.958;6.770;2023-03-02T03:44:50;10.83;;;4.33;;
2646;SDS011;1333;50.958;6.770;2023-03-02T03:47:15;9.83;;;4.70;;
2646;SDS011;1333;50.958;6.770;2023-03-02T03:49:41;6.40;;;4.50;;
2646;SDS011;1333;50.958;6.770;2023-03-02T03:52:06;9.10;;;5.27;;
2646;SDS011;1333;50.958;6.770;2023-03-02T03:54:32;5.93;;;3.80;;
2646;SDS011;1333;50.958;6.770;2023-03-02T03:56:57;6.83;;;4.60;;
2646;SDS011;1333;50.958;6.770;2023-03-02T03:59:23;11.77;;;6.07;;
2646;SDS011;1333;50.958;6.770;2023-03-02T04:01:51;13.63;;;5.83;;
2646;SDS011;1333;50.958;6.770;2023-03-02T04:04:20;10.67;;;5.97;;
2646;SDS011;1333;50.958;6.770;2023-03-02T04:06:55;10.07;;;5.30;;
2646;SDS011;1333;50.958;6.770;2023-03-02T04:09:22;6.13;;;4.80;;
2646;SDS011;1333;50.958;6.770;2023-03-02T04:11:49;11.20;;;4.93;;
2646;SDS011;1333;50.958;6.770;2023-03-02T04:14:16;8.93;;;5.43;;
2646;SDS011;1333;50.958;6.770;2023-03-02T04:16:42;7.97;;;4.13;;
2646;SDS011;1333;50.958;6.770;2023-03-02T04:19:08;5.60;;;4.13;;
2646;SDS011;1333;50.958;6.770;2023-03-02T04:21:36;9.50;;;5.40;;
2646;SDS011;1333;50.958;6.770;2023-03-02T04:24:07;5.40;;;3.97;;
2646;SDS011;1333;50.958;6.770;2023-03-02T04:26:33;13.63;;;5.50;;
2646;SDS011;1333;50.958;6.770;2023-03-02T04:29:00;11.03;;;4.50;;
2646;SDS011;1333;50.958;6.770;2023-03-02T04:31:26;7.30;;;4.47;;
2646;SDS011;1333;50.958;6.770;2023-03-02T04:33:51;9.67;;;5.07;;
2646;SDS011;1333;50.958;6.770;2023-03-02T04:36:17;5.17;;;3.80;;
2646;SDS011;1333;50.958;6.770;2023-03-02T04:38:43;10.97;;;5.10;;
2646;SDS011;1333;50.958;6.770;2023-03-02T04:41:09;8.30;;;5.67;;
2646;SDS011;1333;50.958;6.770;2023-03-02T04:43:35;5.50;;;4.07;;
2646;SDS011;1333;50.958;6.770;2023-03-02T04:46:00;9.30;;;5.73;;
2646;SDS011;1333;50.958;6.770;2023-03-02T04:48:26;5.47;;;4.40;;
2646;SDS011;1333;50.958;6.770;2023-03-02T04:50:52;9.67;;;5.47;;
2646;SDS011;1333;50.958;6.770;2023-03-02T04:53:17;7.40;;;5.87;;
2646;SDS011;1333;50.958;6.770;2023-03-02T04:55:43;7.90;;;5.20;;
2646;SDS011;1333;50.958;6.770;2023-03-02T04:58:08;9.10;;;5.33;;
2646;SDS011;1333;50.958;6.770;2023-03-02T05:00:34;7.00;;;4.73;;
2646;SDS011;1333;50.958;6.770;2023-03-02T05:03:00;5.47;;;4.20;;
2646;SDS011;1333;50.958;6.770;2023-03-02T05:05:28;10.10;;;4.47;;
2646;SDS011;1333;50.958;6.770;2023-03-02T05:07:54;10.57;;;5.90;;
2646;SDS011;1333;50.958;6.770;2023-03-02T05:10:22;9.93;;;5.63;;
2646;SDS011;1333;50.958;6.770;2023-03-02T05:12:48;8.73;;;5.10;;
2646;SDS011;1333;50.958;6.770;2023-03-02T05:15:23;8.70;;;5.40;;
2646;SDS011;1333;50.958;6.770;2023-03-02T05:17:50;8.57;;;5.17;;
2646;SDS011;1333;50.958;6.770;2023-03-02T05:20:16;5.23;;;4.73;;
2646;SDS011;1333;50.958;6.770;2023-03-02T05:22:42;8.60;;;4.90;;
2646;SDS011;1333;50.958;6.770;2023-03-02T05:25:07;9.40;;;4.90;;
2646;SDS011;1333;50.958;6.770;2023-03-02T05:27:33;9.17;;;5.03;;
2646;SDS011;1333;50.958;6.770;2023-03-02T05:30:01;8.50;;;4.83;;
2646;SDS011;1333;50.958;6.770;2023-03-02T05:32:28;11.30;;;4.60;;
2646;SDS011;1333;50.958;6.770;2023-03-02T05:34:53;7.87;;;4.53;;
2646;SDS011;1333;50.958;6.770;2023-03-02T05:37:19;12.77;;;6.00;;
2646;SDS011;1333;50.958;6.770;2023-03-02T05:39:44;7.30;;;4.73;;
2646;SDS011;1333;50.958;6.770;2023-03-02T05:42:10;13.50;;;5.23;;
2646;SDS011;1333;50.958;6.770;2023-03-02T05:44:35;6.53;;;4.23;;
2646;SDS011;1333;50.958;6.770;2023-03-02T05:47:01;9.53;;;4.47;;
2646;SDS011;1333;50.958;6.770;2023-03-02T05:49:26;7.20;;;4.00;;
2646;SDS011;1333;50.958;6.770;2023-03-02T05:51:52;7.40;;;4.67;;
2646;SDS011;1333;50.958;6.770;2023-03-02T05:54:17;10.77;;;5.17;;
2646;SDS011;1333;50.958;6.770;2023-03-02T05:56:43;4.63;;;3.20;;
2646;SDS011;1333;50.958;6.770;2023-03-02T05:59:08;6.13;;;4.67;;
2646;SDS011;1333;50.958;6.770;2023-03-02T06:01:34;10.33;;;5.30;;
2646;SDS011;1333;50.958;6.770;2023-03-02T06:04:00;7.03;;;4.50;;
2646;SDS011;1333;50.958;6.770;2023-03-02T06:06:26;8.80;;;4.63;;
2646;SDS011;1333;50.958;6.770;2023-03-02T06:08:52;26.00;;;10.33;;
2646;SDS011;1333;50.958;6.770;2023-03-02T06:11:18;15.70;;;8.90;;
2646;SDS011;1333;50.958;6.770;2023-03-02T06:13:43;6.70;;;5.07;;
2646;SDS011;1333;50.958;6.770;2023-03-02T06:16:09;11.90;;;4.43;;
2646;SDS011;1333;50.958;6.770;2023-03-02T06:18:35;11.27;;;5.27;;
2646;SDS011;1333;50.958;6.770;2023-03-02T06:21:01;5.20;;;4.63;;
2646;SDS011;1333;50.958;6.770;2023-03-02T06:23:26;8.23;;;5.30;;
2646;SDS011;1333;50.958;6.770;2023-03-02T06:25:52;7.90;;;5.03;;
2646;SDS011;1333;50.958;6.770;2023-03-02T06:28:18;6.70;;;3.93;;
2646;SDS011;1333;50.958;6.770;2023-03-02T06:30:44;9.10;;;4.40;;
2646;SDS011;1333;50.958;6.770;2023-03-02T06:33:12;8.47;;;4.57;;
2646;SDS011;1333;50.958;6.770;2023-03-02T06:35:39;12.30;;;6.23;;
2646;SDS011;1333;50.958;6.770;2023-03-02T06:38:06;8.87;;;5.10;;
2646;SDS011;1333;50.958;6.770;2023-03-02T06:40:31;9.70;;;5.97;;
2646;SDS011;1333;50.958;6.770;2023-03-02T06:42:57;9.87;;;5.70;;
2646;SDS011;1333;50.958;6.770;2023-03-02T06:45:24;9.87;;;6.37;;
2646;SDS011;1333;50.958;6.770;2023-03-02T06:47:51;8.33;;;4.70;;
2646;SDS011;1333;50.958;6.770;2023-03-02T06:50:16;9.83;;;4.80;;
2646;SDS011;1333;50.958;6.770;2023-03-02T06:52:42;8.20;;;5.07;;
2646;SDS011;1333;50.958;6.770;2023-03-02T06:55:07;8.53;;;4.50;;
2646;SDS011;1333;50.958;6.770;2023-03-02T06:57:33;7.03;;;5.33;;
2646;SDS011;1333;50.958;6.770;2023-03-02T06:59:59;10.57;;;5.17;;
2646;SDS011;1333;50.958;6.770;2023-03-02T07:02:34;8.40;;;5.00;;
2646;SDS011;1333;50.958;6.770;2023-03-02T07:05:00;9.00;;;5.47;;
2646;SDS011;1333;50.958;6.770;2023-03-02T07:07:25;6.10;;;3.93;;
2646;SDS011;1333;50.958;6.770;2023-03-02T07:09:51;9.93;;;5.33;;
2646;SDS011;1333;50.958;6.770;2023-03-02T07:12:16;10.30;;;5.30;;
2646;SDS011;1333;50.958;6.770;2023-03-02T07:14:42;10.80;;;5.93;;
2646;SDS011;1333;50.958;6.770;2023-03-02T07:17:07;11.17;;;5.23;;
2646;SDS011;1333;50.958;6.770;2023-03-02T07:19:33;6.23;;;4.70;;
2646;SDS011;1333;50.958;6.770;2023-03-02T07:21:58;9.50;;;5.20;;
2646;SDS011;1333;50.958;6.770;2023-03-02T07:24:24;7.70;;;5.20;;
2646;SDS011;1333;50.958;6.770;2023-03-02T07:26:50;8.80;;;5.17;;
2646;SDS011;1333;50.958;6.770;2023-03-02T07:29:15;8.97;;;4.90;;
2646;SDS011;1333;50.958;6.770;2023-03-02T07:31:41;6.70;;;4.60;;
2646;SDS011;1333;50.958;6.770;2023-03-02T07:34:08;13.33;;;5.97;;
2646;SDS011;1333;50.958;6.770;2023-03-02T07:36:33;9.23;;;5.50;;
2646;SDS011;1333;50.958;6.770;2023-03-02T07:39:00;8.60;;;6.10;;
2646;SDS011;1333;50.958;6.770;2023-03-02T07:41:28;18.50;;;6.80;;
2646;SDS011;1333;50.958;6.770;2023-03-02T07:43:54;8.30;;;5.37;;
2646;SDS011;1333;50.958;6.770;2023-03-02T07:46:19;13.60;;;6.60;;
2646;SDS011;1333;50.958;6.770;2023-03-02T07:48:45;12.73;;;6.67;;
2646;SDS011;1333;50.958;6.770;2023-03-02T07:51:10;6.53;;;5.50;;
2646;SDS011;1333;50.958;6.770;2023-03-02T07:53:36;8.40;;;5.23;;
2646;SDS011;1333;50.958;6.770;2023-03-02T07:56:08;8.77;;;4.67;;
2646;SDS011;1333;50.958;6.770;2023-03-02T07:58:35;11.40;;;5.33;;
2646;SDS011;1333;50.958;6.770;2023-03-02T08:01:01;7.47;;;4.77;;
2646;SDS011;1333;50.958;6.770;2023-03-02T08:03:26;5.97;;;4.17;;
2646;SDS011;1333;50.958;6.770;2023-03-02T08:05:52;8.73;;;4.27;;
2646;SDS011;1333;50.958;6.770;2023-03-02T08:08:17;7.77;;;4.73;;
2646;SDS011;1333;50.958;6.770;2023-03-02T08:10:43;7.70;;;5.10;;
2646;SDS011;1333;50.958;6.770;2023-03-02T08:13:09;9.30;;;5.07;;
2646;SDS011;1333;50.958;6.770;2023-03-02T08:15:34;10.73;;;4.63;;
2646;SDS011;1333;50.958;6.770;2023-03-02T08:18:00;6.20;;;4.90;;
2646;SDS011;1333;50.958;6.770;2023-03-02T08:20:25;7.20;;;4.90;;
2646;SDS011;1333;50.958;6.770;2023-03-02T08:22:51;6.40;;;5.20;;
2646;SDS011;1333;50.958;6.770;2023-03-02T08:25:16;8.00;;;4.50;;
2646;SDS011;1333;50.958;6.770;2023-03-02T08:27:42;5.67;;;5.03;;
2646;SDS011;1333;50.958;6.770;2023-03-02T08:30:10;7.77;;;6.40;;
2646;SDS011;1333;50.958;6.770;2023-03-02T08:32:36;7.60;;;6.00;;
2646;SDS011;1333;50.958;6.770;2023-03-02T08:35:02;8.13;;;5.70;;
2646;SDS011;1333;50.958;6.770;2023-03-02T08:37:30;8.00;;;5.57;;
2646;SDS011;1333;50.958;6.770;2023-03-02T08:39:55;6.47;;;5.87;;
2646;SDS011;1333;50.958;6.770;2023-03-02T08:42:21;7.53;;;6.80;;
2646;SDS011;1333;50.958;6.770;2023-03-02T08:44:47;5.77;;;5.10;;
2646;SDS011;1333;50.958;6.770;2023-03-02T08:47:12;10.53;;;6.37;;
2646;SDS011;1333;50.958;6.770;2023-03-02T08:49:38;6.93;;;6.23;;
2646;SDS011;1333;50.958;6.770;2023-03-02T08:52:04;11.00;;;6.73;;
2646;SDS011;1333;50.958;6.770;2023-03-02T08:54:30;6.77;;;6.13;;
2646;SDS011;1333;50.958;6.770;2023-03-02T08:56:58;7.57;;;6.70;;
2646;SDS011;1333;50.958;6.770;2023-03-02T08:59:24;7.23;;;6.53;;
2646;SDS011;1333;50.958;6.770;2023-03-02T09:01:49;8.23;;;6.70;;
2646;SDS011;1333;50.958;6.770;2023-03-02T09:04:15;7.53;;;6.60;;
2646;SDS011;1333;50.958;6.770;2023-03-02T09:06:41;8.07;;;6.87;;
2646;SDS011;1333;50.958;6.770;2023-03-02T09:09:09;6.77;;;6.17;;
2646;SDS011;1333;50.958;6.770;2023-03-02T09:11:35;6.60;;;6.00;;
2646;SDS011;1333;50.958;6.770;2023-03-02T09:14:01;7.37;;;6.30;;
2646;SDS011;1333;50.958;6.770;2023-03-02T09:16:27;6.07;;;5.47;;
2646;SDS011;1333;50.958;6.770;2023-03-02T09:18:53;7.20;;;6.50;;
2646;SDS011;1333;50.958;6.770;2023-03-02T09:21:19;8.53;;;6.47;;
2646;SDS011;1333;50.958;6.770;2023-03-02T09:23:45;6.33;;;5.43;;
2646;SDS011;1333;50.958;6.770;2023-03-02T09:26:11;7.40;;;6.77;;
2646;SDS011;1333;50.958;6.770;2023-03-02T09:28:37;8.30;;;5.90;;
2646;SDS011;1333;50.958;6.770;2023-03-02T09:31:04;7.30;;;6.07;;
2646;SDS011;1333;50.958;6.770;2023-03-02T09:33:31;6.83;;;5.80;;
2646;SDS011;1333;50.958;6.770;2023-03-02T09:35:57;12.00;;;6.47;;
2646;SDS011;1333;50.958;6.770;2023-03-02T09:38:23;7.60;;;6.90;;
2646;SDS011;1333;50.958;6.770;2023-03-02T09:40:54;6.43;;;5.83;;
2646;SDS011;1333;50.958;6.770;2023-03-02T09:49:20;6.40;;;5.90;;
2646;SDS011;1333;50.958;6.770;2023-03-02T09:52:24;8.70;;;6.43;;
2646;SDS011;1333;50.958;6.770;2023-03-02T09:54:55;7.83;;;7.00;;
2646;SDS011;1333;50.958;6.770;2023-03-02T09:57:25;6.70;;;6.10;;
2646;SDS011;1333;50.958;6.770;2023-03-02T09:59:57;7.80;;;6.90;;
2646;SDS011;1333;50.958;6.770;2023-03-02T10:02:27;7.17;;;6.57;;
2646;SDS011;1333;50.958;6.770;2023-03-02T10:04:57;7.23;;;6.63;;
2646;SDS011;1333;50.958;6.770;2023-03-02T10:07:27;7.53;;;6.87;;
2646;SDS011;1333;50.958;6.770;2023-03-02T10:10:03;7.57;;;6.87;;
2646;SDS011;1333;50.958;6.770;2023-03-02T10:21:45;7.30;;;6.63;;
2646;SDS011;1333;50.958;6.770;2023-03-02T10:24:01;7.23;;;6.53;;
2646;SDS011;1333;50.958;6.770;2023-03-02T10:26:58;8.30;;;7.50;;
2646;SDS011;1333;50.958;6.770;2023-03-02T10:29:43;8.17;;;7.47;;
2646;SDS011;1333;50.958;6.770;2023-03-02T10:32:22;8.67;;;7.87;;
2646;SDS011;1333;50.958;6.770;2023-03-02T10:34:53;7.73;;;7.10;;
2646;SDS011;1333;50.958;6.770;2023-03-02T10:37:23;8.07;;;6.10;;
2646;SDS011;1333;50.958;6.770;2023-03-02T10:39:53;7.90;;;6.60;;
2646;SDS011;1333;50.958;6.770;2023-03-02T10:42:20;9.20;;;8.30;;
2646;SDS011;1333;50.958;6.770;2023-03-02T10:44:58;8.20;;;7.40;;
2646;SDS011;1333;50.958;6.770;2023-03-02T10:47:39;6.40;;;5.90;;
2646;SDS011;1333;50.958;6.770;2023-03-02T10:50:16;7.73;;;7.03;;
2646;SDS011;1333;50.958;6.770;2023-03-02T10:52:49;7.23;;;6.53;;
2646;SDS011;1333;50.958;6.770;2023-03-02T10:55:15;8.13;;;6.50;;
2646;SDS011;1333;50.958;6.770;2023-03-02T10:57:42;7.63;;;6.90;;
2646;SDS011;1333;50.958;6.770;2023-03-02T11:00:13;7.90;;;7.30;;
2646;SDS011;1333;50.958;6.770;2023-03-02T11:02:47;7.20;;;6.60;;
2646;SDS011;1333;50.958;6.770;2023-03-02T11:05:24;7.53;;;6.83;;
2646;SDS011;1333;50.958;6.770;2023-03-02T11:07:59;6.47;;;5.97;;
2646;SDS011;1333;50.958;6.770;2023-03-02T11:12:58;7.63;;;6.93;;
2646;SDS011;1333;50.958;6.770;2023-03-02T11:18:10;7.70;;;7.00;;
2646;SDS011;1333;50.958;6.770;2023-03-02T11:20:51;7.00;;;6.07;;
2646;SDS011;1333;50.958;6.770;2023-03-02T11:29:17;7.40;;;6.70;;
2646;SDS011;1333;50.958;6.770;2023-03-02T11:31:55;8.63;;;7.80;;
2646;SDS011;1333;50.958;6.770;2023-03-02T11:45:45;6.93;;;6.30;;
2646;SDS011;1333;50.958;6.770;2023-03-02T11:47:58;7.50;;;6.80;;
2646;SDS011;1333;50.958;6.770;2023-03-02T11:50:33;6.60;;;6.07;;
2646;SDS011;1333;50.958;6.770;2023-03-02T11:53:05;7.33;;;6.63;;
2646;SDS011;1333;50.958;6.770;2023-03-02T11:55:39;7.60;;;6.90;;
2646;SDS011;1333;50.958;6.770;2023-03-02T11:58:10;7.00;;;6.40;;
2646;SDS011;1333;50.958;6.770;2023-03-02T12:00:46;8.27;;;7.43;;
2646;SDS011;1333;50.958;6.770;2023-03-02T12:11:01;7.20;;;6.60;;
2646;SDS011;1333;50.958;6.770;2023-03-02T12:13:34;7.60;;;6.93;;
2646;SDS011;1333;50.958;6.770;2023-03-02T12:16:17;7.87;;;7.07;;
2646;SDS011;1333;50.958;6.770;2023-03-02T12:18:48;7.17;;;6.57;;
2646;SDS011;1333;50.958;6.770;2023-03-02T12:21:16;6.60;;;6.10;;
2646;SDS011;1333;50.958;6.770;2023-03-02T12:26:23;7.60;;;6.83;;
2646;SDS011;1333;50.958;6.770;2023-03-02T12:31:23;6.67;;;6.07;;
2646;SDS011;1333;50.958;6.770;2023-03-02T12:33:50;7.50;;;6.77;;
2646;SDS011;1333;50.958;6.770;2023-03-02T12:36:38;7.03;;;6.53;;
2646;SDS011;1333;50.958;6.770;2023-03-02T12:47:44;8.00;;;7.40;;
2646;SDS011;1333;50.958;6.770;2023-03-02T12:50:19;7.63;;;7.00;;
2646;SDS011;1333;50.958;6.770;2023-03-02T12:52:57;7.63;;;6.93;;
2646;SDS011;1333;50.958;6.770;2023-03-02T12:55:25;7.43;;;6.80;;
2646;SDS011;1333;50.958;6.770;2023-03-02T12:57:51;9.50;;;6.43;;
2646;SDS011;1333;50.958;6.770;2023-03-02T13:00:20;8.03;;;6.87;;
2646;SDS011;1333;50.958;6.770;2023-03-02T13:02:48;6.50;;;5.90;;
2646;SDS011;1333;50.958;6.770;2023-03-02T13:05:19;6.97;;;6.37;;
2646;SDS011;1333;50.958;6.770;2023-03-02T13:08:00;6.50;;;5.90;;
2646;SDS011;1333;50.958;6.770;2023-03-02T13:10:30;6.67;;;6.07;;
2646;SDS011;1333;50.958;6.770;2023-03-02T13:18:19;7.33;;;6.50;;
2646;SDS011;1333;50.958;6.770;2023-03-02T13:20:47;8.77;;;6.80;;
2646;SDS011;1333;50.958;6.770;2023-03-02T13:23:14;6.77;;;6.27;;
2646;SDS011;1333;50.958;6.770;2023-03-02T13:25:51;5.97;;;5.47;;
2646;SDS011;1333;50.958;6.770;2023-03-02T13:28:32;6.30;;;5.80;;
2646;SDS011;1333;50.958;6.770;2023-03-02T13:31:03;6.40;;;5.60;;
2646;SDS011;1333;50.958;6.770;2023-03-02T13:33:43;6.60;;;6.00;;
2646;SDS011;1333;50.958;6.770;2023-03-02T13:36:17;6.20;;;5.70;;
2646;SDS011;1333;50.958;6.770;2023-03-02T13:38:45;5.93;;;5.40;;
2646;SDS011;1333;50.958;6.770;2023-03-02T13:41:20;6.60;;;6.00;;
2646;SDS011;1333;50.958;6.770;2023-03-02T13:43:50;7.20;;;5.90;;
2646;SDS011;1333;50.958;6.770;2023-03-02T13:48:58;6.77;;;6.17;;
2646;SDS011;1333;50.958;6.770;2023-03-02T13:51:41;5.63;;;5.23;;
2646;SDS011;1333;50.958;6.770;2023-03-02T13:54:11;7.00;;;6.40;;
2646;SDS011;1333;50.958;6.770;2023-03-02T13:56:49;5.57;;;5.00;;
2646;SDS011;1333;50.958;6.770;2023-03-02T13:59:16;5.93;;;5.33;;
2646;SDS011;1333;50.958;6.770;2023-03-02T14:01:43;6.50;;;5.23;;
2646;SDS011;1333;50.958;6.770;2023-03-02T14:04:12;6.30;;;5.73;;
2646;SDS011;1333;50.958;6.770;2023-03-02T14:06:38;7.10;;;6.17;;
2646;SDS011;1333;50.958;6.770;2023-03-02T14:09:04;5.73;;;5.13;;
2646;SDS011;1333;50.958;6.770;2023-03-02T14:11:31;6.70;;;6.07;;
2646;SDS011;1333;50.958;6.770;2023-03-02T14:14:00;6.50;;;5.70;;
2646;SDS011;1333;50.958;6.770;2023-03-02T14:16:27;7.60;;;5.10;;
2646;SDS011;1333;50.958;6.770;2023-03-02T14:18:53;6.10;;;5.60;;
2646;SDS011;1333;50.958;6.770;2023-03-02T14:21:21;4.93;;;4.43;;
2646;SDS011;1333;50.958;6.770;2023-03-02T14:23:48;6.40;;;5.80;;
2646;SDS011;1333;50.958;6.770;2023-03-02T14:26:18;8.87;;;5.30;;
2646;SDS011;1333;50.958;6.770;2023-03-02T14:28:50;7.00;;;5.20;;
2646;SDS011;1333;50.958;6.770;2023-03-02T14:31:16;4.83;;;4.40;;
2646;SDS011;1333;50.958;6.770;2023-03-02T14:33:43;5.87;;;5.37;;
2646;SDS011;1333;50.958;6.770;2023-03-02T14:36:09;5.80;;;5.13;;
2646;SDS011;1333;50.958;6.770;2023-03-02T14:38:39;5.90;;;5.30;;
2646;SDS011;1333;50.958;6.770;2023-03-02T14:41:05;6.13;;;5.10;;
2646;SDS011;1333;50.958;6.770;2023-03-02T14:43:31;5.43;;;5.00;;
2646;SDS011;1333;50.958;6.770;2023-03-02T14:45:56;5.00;;;4.50;;
2646;SDS011;1333;50.958;6.770;2023-03-02T14:48:22;8.10;;;5.40;;
2646;SDS011;1333;50.958;6.770;2023-03-02T14:50:47;4.90;;;4.50;;
2646;SDS011;1333;50.958;6.770;2023-03-02T14:53:15;5.13;;;4.73;;
2646;SDS011;1333;50.958;6.770;2023-03-02T14:55:46;5.77;;;5.07;;
2646;SDS011;1333;50.958;6.770;2023-03-02T14:58:14;5.00;;;4.50;;
2646;SDS011;1333;50.958;6.770;2023-03-02T15:00:48;6.00;;;5.40;;
2646;SDS011;1333;50.958;6.770;2023-03-02T15:03:15;6.87;;;5.27;;
2646;SDS011;1333;50.958;6.770;2023-03-02T15:05:49;6.47;;;4.83;;
2646;SDS011;1333;50.958;6.770;2023-03-02T15:08:16;4.60;;;4.20;;
2646;SDS011;1333;50.958;6.770;2023-03-02T15:10:41;5.30;;;4.30;;
2646;SDS011;1333;50.958;6.770;2023-03-02T15:13:08;6.40;;;4.30;;
2646;SDS011;1333;50.958;6.770;2023-03-02T15:15:34;6.03;;;4.33;;
2646;SDS011;1333;50.958;6.770;2023-03-02T15:18:00;4.40;;;3.80;;
2646;SDS011;1333;50.958;6.770;2023-03-02T15:20:26;4.00;;;3.40;;
2646;SDS011;1333;50.958;6.770;2023-03-02T15:22:52;4.27;;;3.97;;
2646;SDS011;1333;50.958;6.770;2023-03-02T15:25:18;4.53;;;4.10;;
2646;SDS011;1333;50.958;6.770;2023-03-02T15:27:44;6.10;;;3.93;;
2646;SDS011;1333;50.958;6.770;2023-03-02T15:30:09;4.60;;;4.00;;
2646;SDS011;1333;50.958;6.770;2023-03-02T15:32:36;4.83;;;4.00;;
2646;SDS011;1333;50.958;6.770;2023-03-02T15:35:02;5.13;;;3.90;;
2646;SDS011;1333;50.958;6.770;2023-03-02T15:37:28;5.70;;;4.50;;
2646;SDS011;1333;50.958;6.770;2023-03-02T15:39:54;8.50;;;4.20;;
2646;SDS011;1333;50.958;6.770;2023-03-02T15:42:20;4.50;;;4.10;;
2646;SDS011;1333;50.958;6.770;2023-03-02T15:44:46;4.30;;;4.00;;
2646;SDS011;1333;50.958;6.770;2023-03-02T15:47:12;4.40;;;3.90;;
2646;SDS011;1333;50.958;6.770;2023-03-02T15:49:37;4.77;;;3.60;;
2646;SDS011;1333;50.958;6.770;2023-03-02T15:52:03;6.60;;;4.10;;
2646;SDS011;1333;50.958;6.770;2023-03-02T15:54:28;7.10;;;4.63;;
2646;SDS011;1333;50.958;6.770;2023-03-02T15:56:54;7.07;;;3.17;;
2646;SDS011;1333;50.958;6.770;2023-03-02T15:59:21;5.83;;;3.87;;
2646;SDS011;1333;50.958;6.770;2023-03-02T16:01:48;3.97;;;3.67;;
2646;SDS011;1333;50.958;6.770;2023-03-02T16:04:13;6.30;;;3.60;;
2646;SDS011;1333;50.958;6.770;2023-03-02T16:06:39;5.00;;;3.60;;
2646;SDS011;1333;50.958;6.770;2023-03-02T16:09:05;5.37;;;4.17;;
2646;SDS011;1333;50.958;6.770;2023-03-02T16:11:31;13.60;;;4.30;;
2646;SDS011;1333;50.958;6.770;2023-03-02T16:13:56;4.83;;;3.50;;
2646;SDS011;1333;50.958;6.770;2023-03-02T16:16:22;4.00;;;3.30;;
2646;SDS011;1333;50.958;6.770;2023-03-02T16:18:54;4.60;;;3.63;;
2646;SDS011;1333;50.958;6.770;2023-03-02T16:21:22;6.07;;;3.60;;
2646;SDS011;1333;50.958;6.770;2023-03-02T16:23:49;4.13;;;3.67;;
2646;SDS011;1333;50.958;6.770;2023-03-02T16:26:16;4.27;;;2.97;;
2646;SDS011;1333;50.958;6.770;2023-03-02T16:28:44;3.90;;;2.93;;
2646;SDS011;1333;50.958;6.770;2023-03-02T16:31:14;5.53;;;2.90;;